createdAt,value
2023-04-04T00:01:01.103Z,4.33
2023-04-04T00:06:04.079Z,7.18
2023-04-04T00:11:07.207Z,6.07
2023-04-04T00:16:10.413Z,4.25
2023-04-04T00:21:13.140Z,6.32
2023-04-04T00:26:17.591Z,6.73
2023-04-04T00:31:21.488Z,6.63
2023-04-04T00:36:24.458Z,8.43
2023-04-04T00:41:27.249Z,7.75
2023-04-04T00:46:30.125Z,7.50
2023-04-04T00:51:32.770Z,6.53
2023-04-04T00:56:39.872Z,2.97
2023-04-04T01:01:42.612Z,3.88
2023-04-04T01:06:46.174Z,5.40
2023-04-04T01:11:49.085Z,5.35
2023-04-04T01:16:52.481Z,6.63
2023-04-04T01:21:57.533Z,6.93
2023-04-04T01:27:01.017Z,6.63
2023-04-04T01:32:47.718Z,4.32
2023-04-04T01:37:58.661Z,5.80
2023-04-04T01:43:02.785Z,7.73
2023-04-04T01:48:08.463Z,7.03
2023-04-04T01:53:11.465Z,2.95
2023-04-04T01:58:14.825Z,6.22
2023-04-04T02:03:17.823Z,5.50
2023-04-04T02:08:20.905Z,6.27
2023-04-04T02:13:29.161Z,6.53
2023-04-04T02:18:34.794Z,6.55
2023-04-04T02:23:39.171Z,4.70
2023-04-04T02:28:41.842Z,5.55
2023-04-04T02:33:46.534Z,5.33
2023-04-04T02:38:51.456Z,6.35
2023-04-04T02:43:56.352Z,6.18
2023-04-04T02:48:59.427Z,5.15
2023-04-04T02:54:03.360Z,3.95
2023-04-04T02:59:13.177Z,10.13
2023-04-04T03:04:16.009Z,5.70
2023-04-04T03:09:18.984Z,3.40
2023-04-04T03:14:21.949Z,7.40
2023-04-04T03:19:25.156Z,5.60
2023-04-04T03:24:29.492Z,7.50
2023-04-04T03:29:32.638Z,6.30
2023-04-04T03:34:36.308Z,4.93
2023-04-04T03:39:39.062Z,4.78
2023-04-04T03:44:42.303Z,7.53
2023-04-04T03:49:52.973Z,5.37
2023-04-04T03:54:55.629Z,7.50
2023-04-04T03:59:58.361Z,5.47
2023-04-04T04:05:01.536Z,6.15
2023-04-04T04:10:05.667Z,4.93
2023-04-04T04:15:09.673Z,3.93
2023-04-04T04:20:13.652Z,7.40
2023-04-04T04:25:24.057Z,5.10
2023-04-04T04:30:46.678Z,4.50
2023-04-04T04:35:53.486Z,1.50
2023-04-04T04:40:58.947Z,5.23
2023-04-04T04:46:11.773Z,4.63
2023-04-04T04:51:15.487Z,6.22
2023-04-04T04:56:23.738Z,5.40
2023-04-04T05:01:30.038Z,7.32
2023-04-04T05:06:33.905Z,3.70
2023-04-04T05:11:37.100Z,5.78
2023-04-04T05:16:43.046Z,10.02
2023-04-04T05:21:46.816Z,7.85
2023-04-04T05:27:01.679Z,6.20
2023-04-04T05:32:10.458Z,5.97
2023-04-04T05:37:15.158Z,4.47
2023-04-04T05:42:22.895Z,7.32
2023-04-04T05:47:30.023Z,4.22
2023-04-04T05:52:33.452Z,5.45
2023-04-04T05:57:38.344Z,8.73
2023-04-04T06:02:41.194Z,7.75
2023-04-04T06:07:50.186Z,20.20
2023-04-04T06:12:53.058Z,15.75
2023-04-04T06:17:56.125Z,7.20
2023-04-04T06:23:02.316Z,10.10
2023-04-04T06:28:05.557Z,8.68
2023-04-04T06:33:08.547Z,6.00
2023-04-04T06:38:17.042Z,10.70
2023-04-04T06:43:20.965Z,2.75
2023-04-04T06:48:24.151Z,6.47
2023-04-04T06:53:27.065Z,6.13
2023-04-04T06:58:29.864Z,6.75
2023-04-04T07:03:32.631Z,5.07
2023-04-04T07:08:36.773Z,7.25
2023-04-04T07:13:39.929Z,5.20
2023-04-04T07:18:42.918Z,9.82
2023-04-04T07:23:45.520Z,7.72
2023-04-04T07:28:48.222Z,10.70
2023-04-04T07:33:54.950Z,6.45
2023-04-04T07:38:58.325Z,9.43
2023-04-04T07:44:01.048Z,8.23
2023-04-04T07:49:03.971Z,6.25
2023-04-04T07:54:07.057Z,8.25
2023-04-04T07:59:09.811Z,10.98
2023-04-04T08:04:12.628Z,8.50
2023-04-04T08:09:15.621Z,4.75
2023-04-04T08:14:18.463Z,6.93
2023-04-04T08:19:21.458Z,4.53
2023-04-04T08:24:25.569Z,6.45
2023-04-04T08:29:32.139Z,6.73
2023-04-04T08:34:34.981Z,7.18
2023-04-04T08:39:38.408Z,5.10
2023-04-04T08:44:44.213Z,6.72
2023-04-04T08:49:48.822Z,5.72
2023-04-04T08:54:52.902Z,4.63
2023-04-04T08:59:55.833Z,5.03
2023-04-04T09:05:06.158Z,6.72
2023-04-04T09:10:14.530Z,5.03
2023-04-04T09:15:17.664Z,5.00
2023-04-04T09:20:43.805Z,5.10
2023-04-04T09:30:54.870Z,4.63
2023-04-04T09:36:11.942Z,2.90
2023-04-04T09:41:16.148Z,4.65
2023-04-04T09:46:21.735Z,5.87
2023-04-04T09:51:24.622Z,4.07
2023-04-04T09:56:28.221Z,4.90
2023-04-04T10:01:31.147Z,9.35
2023-04-04T10:06:36.924Z,5.50
2023-04-04T10:11:39.971Z,4.97
2023-04-04T10:16:45.945Z,5.70
2023-04-04T10:21:49.306Z,5.45
2023-04-04T10:26:53.708Z,4.53
2023-04-04T10:32:22.071Z,3.10
2023-04-04T10:37:29.878Z,3.63
2023-04-04T10:42:39.053Z,4.13
2023-04-04T10:47:43.084Z,5.93
2023-04-04T10:52:46.705Z,4.63
2023-04-04T10:57:53.001Z,6.82
2023-04-04T11:03:02.939Z,5.00
2023-04-04T11:08:11.093Z,8.38
2023-04-04T11:13:26.785Z,4.72
2023-04-04T11:18:34.180Z,5.38
2023-04-04T11:23:49.586Z,4.80
2023-04-04T11:28:52.489Z,6.07
2023-04-04T11:33:56.569Z,5.15
2023-04-04T11:39:00.189Z,4.47
2023-04-04T11:44:12.290Z,4.75
2023-04-04T11:49:16.269Z,5.28
2023-04-04T11:54:19.094Z,4.07
2023-04-04T11:59:23.340Z,5.97
2023-04-04T12:04:26.903Z,4.78
2023-04-04T12:09:30.904Z,5.45
2023-04-04T12:14:34.656Z,3.90
2023-04-04T12:19:39.180Z,5.63
2023-04-04T12:24:42.377Z,3.83
2023-04-04T12:29:47.813Z,5.13
2023-04-04T12:34:51.036Z,6.15
2023-04-04T12:39:55.133Z,5.20
2023-04-04T12:44:59.026Z,5.30
2023-04-04T12:50:02.263Z,5.85
2023-04-04T12:55:12.980Z,6.45
2023-04-04T13:00:17.016Z,5.03
2023-04-04T13:05:22.291Z,5.65
2023-04-04T13:10:25.133Z,3.67
2023-04-04T13:15:50.973Z,4.82
2023-04-04T13:20:55.197Z,5.03
2023-04-04T13:26:00.132Z,6.38
2023-04-04T13:31:07.060Z,5.57
2023-04-04T13:36:09.906Z,5.10
2023-04-04T13:41:12.879Z,7.53
2023-04-04T13:46:15.776Z,5.93
2023-04-04T13:51:18.560Z,5.97
2023-04-04T13:56:22.468Z,6.65
2023-04-04T14:01:25.626Z,6.80
2023-04-04T14:06:28.703Z,7.07
2023-04-04T14:11:31.591Z,4.75
2023-04-04T14:16:34.492Z,8.77
2023-04-04T14:21:37.288Z,5.45
2023-04-04T14:26:40.046Z,4.70
2023-04-04T14:31:43.009Z,4.97
2023-04-04T14:36:45.955Z,7.70
2023-04-04T14:41:48.900Z,6.03
2023-04-04T14:46:55.659Z,6.30
2023-04-04T14:51:58.463Z,5.33
2023-04-04T14:57:02.441Z,8.55
2023-04-04T15:02:05.221Z,4.78
2023-04-04T15:07:08.498Z,8.05
2023-04-04T15:12:11.224Z,8.55
2023-04-04T15:17:14.019Z,7.30
2023-04-04T15:22:16.723Z,7.63
2023-04-04T15:27:19.399Z,8.18
2023-04-04T15:32:22.266Z,6.75
2023-04-04T15:37:25.562Z,5.30
2023-04-04T15:42:28.798Z,6.20
2023-04-04T15:47:31.938Z,12.90
2023-04-04T15:52:35.078Z,4.03
2023-04-04T15:57:37.844Z,5.88
2023-04-04T16:02:41.239Z,6.18
2023-04-04T16:07:44.097Z,4.73
2023-04-04T16:12:46.783Z,5.80
2023-04-04T16:17:49.755Z,7.07
2023-04-04T16:22:54.055Z,6.72
2023-04-04T16:27:58.150Z,5.63
2023-04-04T16:33:01.081Z,5.57
2023-04-04T16:38:03.917Z,7.05
2023-04-04T16:43:06.815Z,6.82
2023-04-04T16:48:09.801Z,5.60
2023-04-04T16:53:12.579Z,6.18
2023-04-04T16:58:15.400Z,6.67
2023-04-04T17:03:18.212Z,2.50
2023-04-04T17:08:20.900Z,8.25
2023-04-04T17:13:23.734Z,6.07
2023-04-04T17:18:26.879Z,3.40
2023-04-04T17:23:29.549Z,4.93
2023-04-04T17:28:32.224Z,4.78
2023-04-04T17:33:34.860Z,5.60
2023-04-04T17:38:39.475Z,6.50
2023-04-04T17:43:42.206Z,8.77
2023-04-04T17:48:45.001Z,4.17
2023-04-04T17:53:48.151Z,7.43
2023-04-04T17:58:52.004Z,6.43
2023-04-04T18:03:56.078Z,8.70
2023-04-04T18:08:59.120Z,7.88
2023-04-04T18:14:02.427Z,8.03
2023-04-04T18:19:05.078Z,6.68
2023-04-04T18:24:11.362Z,7.38
2023-04-04T18:29:15.497Z,7.57
2023-04-04T18:34:18.803Z,6.80
2023-04-04T18:39:21.616Z,6.63
2023-04-04T18:44:24.415Z,11.48
2023-04-04T18:49:27.562Z,11.77
2023-04-04T18:54:30.798Z,14.80
2023-04-04T18:59:33.604Z,8.02
2023-04-04T19:04:36.655Z,7.13
2023-04-04T19:09:41.366Z,7.97
2023-04-04T19:14:44.319Z,9.93
2023-04-04T19:19:47.628Z,11.55
2023-04-04T19:24:50.469Z,10.52
2023-04-04T19:29:55.201Z,10.47
2023-04-04T19:34:58.268Z,14.32
2023-04-04T19:40:01.125Z,19.95
2023-04-04T19:45:13.105Z,13.93
2023-04-04T19:50:36.167Z,10.88
2023-04-04T19:55:40.795Z,13.30
2023-04-04T20:00:45.616Z,14.60
2023-04-04T20:05:48.260Z,12.88
2023-04-04T20:10:54.888Z,12.93
2023-04-04T20:16:01.734Z,15.77
2023-04-04T20:21:25.272Z,15.43
2023-04-04T20:26:51.514Z,16.85
2023-04-04T20:31:54.374Z,13.50
2023-04-04T20:36:57.180Z,17.38
2023-04-04T20:42:00.230Z,11.88
2023-04-04T20:47:03.037Z,19.20
2023-04-04T20:52:07.830Z,12.93
2023-04-04T20:57:14.656Z,9.63
2023-04-04T21:02:20.873Z,17.30
2023-04-04T21:07:42.612Z,12.50
2023-04-04T21:12:45.333Z,9.13
2023-04-04T21:17:48.218Z,7.85
2023-04-04T21:22:51.840Z,11.63
2023-04-04T21:27:56.298Z,6.97
2023-04-04T21:32:59.124Z,9.60
2023-04-04T21:38:01.830Z,8.97
2023-04-04T21:43:04.458Z,8.80
2023-04-04T21:48:07.355Z,10.02
2023-04-04T21:53:10.095Z,8.85
2023-04-04T21:58:13.654Z,7.90
2023-04-04T22:03:17.046Z,11.93
2023-04-04T22:08:20.061Z,10.60
2023-04-04T22:13:22.852Z,9.80
2023-04-04T22:18:33.457Z,10.77
2023-04-04T22:23:36.213Z,10.38
2023-04-04T22:28:39.136Z,10.70
2023-04-04T22:33:41.833Z,10.48
2023-04-04T22:38:44.644Z,9.55
2023-04-04T22:43:47.347Z,11.00
2023-04-04T22:48:50.201Z,13.10
2023-04-04T22:53:58.157Z,7.87
2023-04-04T22:59:01.432Z,9.73
2023-04-04T23:04:04.091Z,6.60
2023-04-04T23:09:08.264Z,9.38
2023-04-04T23:14:15.280Z,7.38
2023-04-04T23:19:18.169Z,5.63
2023-04-04T23:24:21.462Z,11.23
2023-04-04T23:29:24.187Z,8.63
2023-04-04T23:34:26.836Z,11.57
2023-04-04T23:39:30.041Z,5.95
2023-04-04T23:44:32.660Z,7.37
2023-04-04T23:49:35.363Z,8.15
2023-04-04T23:54:37.941Z,8.07
2023-04-04T23:59:42.112Z,8.48
